createdAt,value
2023-02-22T00:02:29.058Z,10.79
2023-02-22T00:07:30.725Z,10.97
2023-02-22T00:12:32.267Z,11.02
2023-02-22T00:17:34.074Z,10.73
2023-02-22T00:22:35.882Z,10.96
2023-02-22T00:27:37.782Z,10.66
2023-02-22T00:32:39.409Z,10.81
2023-02-22T00:37:43.663Z,10.89
2023-02-22T00:42:46.423Z,10.79
2023-02-22T00:47:48.616Z,10.91
2023-02-22T00:52:51.104Z,10.84
2023-02-22T00:57:53.778Z,10.71
2023-02-22T01:02:56.854Z,10.70
2023-02-22T01:08:00.134Z,10.62
2023-02-22T01:13:04.897Z,10.77
2023-02-22T01:18:06.952Z,10.64
2023-02-22T01:23:10.510Z,10.64
2023-02-22T01:28:13.664Z,10.56
2023-02-22T01:33:15.895Z,10.58
2023-02-22T01:38:18.726Z,10.75
2023-02-22T01:43:31.966Z,10.93
2023-02-22T01:48:49.861Z,10.67
2023-02-22T01:54:01.953Z,10.62
2023-02-22T01:59:09.072Z,10.65
2023-02-22T02:04:25.346Z,10.72
2023-02-22T02:09:51.692Z,10.66
2023-02-22T02:14:53.744Z,10.69
2023-02-22T02:20:11.565Z,10.59
2023-02-22T02:25:35.094Z,10.55
2023-02-22T02:31:04.355Z,10.37
2023-02-22T02:36:38.289Z,10.35
2023-02-22T02:41:43.352Z,10.38
2023-02-22T02:46:51.354Z,10.26
2023-02-22T02:51:56.533Z,10.37
2023-02-22T02:56:58.237Z,10.60
2023-02-22T03:02:55.130Z,10.37
2023-02-22T03:07:56.693Z,10.30
2023-02-22T03:13:17.900Z,10.17
2023-02-22T03:18:33.360Z,10.34
2023-02-22T03:23:45.494Z,10.16
2023-02-22T03:28:48.634Z,10.23
2023-02-22T03:33:56.240Z,10.20
2023-02-22T03:38:58.997Z,10.22
2023-02-22T03:44:08.549Z,10.22
2023-02-22T03:49:23.630Z,10.31
2023-02-22T03:54:25.481Z,10.30
2023-02-22T03:59:28.011Z,10.49
2023-02-22T04:04:29.692Z,10.43
2023-02-22T04:09:32.764Z,10.54
2023-02-22T04:14:34.898Z,10.42
2023-02-22T04:19:36.796Z,10.64
2023-02-22T04:24:38.513Z,10.12
2023-02-22T04:29:40.411Z,10.23
2023-02-22T04:34:42.502Z,10.14
2023-02-22T04:39:44.969Z,10.05
2023-02-22T04:44:46.698Z,10.09
2023-02-22T04:49:48.385Z,9.92
2023-02-22T04:54:50.763Z,10.08
2023-02-22T04:59:53.726Z,10.11
2023-02-22T05:04:59.427Z,10.12
2023-02-22T05:10:02.920Z,10.18
2023-02-22T05:15:06.224Z,9.99
2023-02-22T05:20:08.575Z,10.25
2023-02-22T05:25:11.290Z,10.22
2023-02-22T05:30:13.333Z,10.45
2023-02-22T05:35:15.087Z,10.20
2023-02-22T05:40:21.427Z,10.16
2023-02-22T05:45:25.837Z,10.26
2023-02-22T05:50:28.056Z,10.22
2023-02-22T05:55:29.640Z,9.91
2023-02-22T06:00:31.885Z,10.01
2023-02-22T06:05:33.921Z,10.11
2023-02-22T06:10:36.274Z,10.00
2023-02-22T06:15:37.845Z,10.29
2023-02-22T06:20:39.437Z,10.11
2023-02-22T06:25:41.071Z,10.31
2023-02-22T06:30:45.573Z,10.52
2023-02-22T06:35:47.258Z,10.40
2023-02-22T06:40:48.885Z,10.35
2023-02-22T06:45:51.356Z,10.30
2023-02-22T06:50:52.993Z,10.25
2023-02-22T06:55:55.844Z,10.41
2023-02-22T07:00:57.519Z,10.33
2023-02-22T07:05:59.117Z,10.38
2023-02-22T07:11:00.820Z,10.57
2023-02-22T07:16:02.521Z,10.73
2023-02-22T07:21:04.668Z,10.67
2023-02-22T07:26:06.312Z,10.64
2023-02-22T07:31:07.874Z,10.64
2023-02-22T07:36:09.684Z,10.72
2023-02-22T07:41:11.803Z,10.50
2023-02-22T07:46:13.451Z,10.72
2023-02-22T07:51:17.018Z,10.94
2023-02-22T07:56:18.900Z,10.73
2023-02-22T08:01:20.498Z,10.90
2023-02-22T08:06:25.633Z,10.52
2023-02-22T08:11:27.253Z,10.76
2023-02-22T08:16:28.821Z,11.07
2023-02-22T08:21:30.456Z,11.12
2023-02-22T08:26:32.225Z,11.21
2023-02-22T08:31:33.846Z,11.08
2023-02-22T08:36:35.485Z,11.07
2023-02-22T08:41:37.194Z,11.18
2023-02-22T08:46:39.198Z,11.35
2023-02-22T08:51:40.797Z,11.36
2023-02-22T08:56:42.468Z,11.41
2023-02-22T09:01:44.145Z,11.38
2023-02-22T09:06:51.610Z,11.56
2023-02-22T09:11:53.370Z,11.72
2023-02-22T09:16:54.996Z,11.51
2023-02-22T09:21:58.256Z,11.81
2023-02-22T09:27:00.027Z,11.81
2023-02-22T09:32:01.808Z,11.89
2023-02-22T09:37:05.005Z,11.93
2023-02-22T09:42:15.362Z,11.99
2023-02-22T09:47:20.324Z,12.01
2023-02-22T09:52:27.439Z,12.07
2023-02-22T09:57:35.205Z,12.13
2023-02-22T10:02:40.145Z,12.17
2023-02-22T10:07:50.960Z,12.18
2023-02-22T10:13:15.328Z,12.20
2023-02-22T10:18:56.239Z,12.19
2023-02-22T10:24:00.726Z,12.25
2023-02-22T10:29:19.310Z,12.28
2023-02-22T10:34:30.040Z,12.37
2023-02-22T10:39:34.547Z,12.44
2023-02-22T10:44:37.416Z,12.46
2023-02-22T10:49:44.564Z,12.59
2023-02-22T10:54:48.276Z,12.55
2023-02-22T10:59:51.974Z,12.53
2023-02-22T11:04:55.953Z,12.58
2023-02-22T11:09:59.981Z,12.70
2023-02-22T11:15:16.853Z,12.61
2023-02-22T11:20:38.705Z,12.67
2023-02-22T11:25:42.502Z,12.79
2023-02-22T11:30:47.084Z,12.85
2023-02-22T11:35:59.611Z,12.88
2023-02-22T11:41:15.818Z,12.92
2023-02-22T11:46:19.374Z,12.98
2023-02-22T11:51:33.080Z,13.02
2023-02-22T11:56:40.009Z,12.99
2023-02-22T12:01:51.289Z,13.04
2023-02-22T12:06:55.482Z,13.03
2023-02-22T12:12:26.196Z,13.05
2023-02-22T12:17:59.302Z,13.05
2023-02-22T12:23:04.769Z,13.07
2023-02-22T12:28:24.260Z,13.11
2023-02-22T12:33:29.706Z,12.96
2023-02-22T12:38:40.022Z,13.10
2023-02-22T12:44:02.239Z,12.88
2023-02-22T12:49:36.520Z,13.01
2023-02-22T12:54:46.318Z,13.10
2023-02-22T13:00:06.929Z,13.14
2023-02-22T13:05:15.511Z,13.11
2023-02-22T13:10:26.410Z,13.14
2023-02-22T13:15:33.810Z,13.09
2023-02-22T13:21:16.528Z,13.16
2023-02-22T13:26:27.005Z,12.90
2023-02-22T13:31:31.663Z,13.12
2023-02-22T13:36:38.554Z,13.08
2023-02-22T13:41:45.790Z,13.14
2023-02-22T13:47:08.948Z,13.13
2023-02-22T13:52:31.009Z,13.08
2023-02-22T13:57:48.140Z,13.03
2023-02-22T14:03:00.918Z,13.02
2023-02-22T14:08:02.506Z,13.05
2023-02-22T14:13:08.105Z,12.94
2023-02-22T14:18:16.364Z,12.78
2023-02-22T14:23:23.732Z,12.98
2023-02-22T14:28:48.608Z,12.98
2023-02-22T14:34:06.379Z,12.72
2023-02-22T14:39:18.046Z,12.96
2023-02-22T14:44:26.730Z,12.93
2023-02-22T14:49:30.764Z,12.87
2023-02-22T14:54:39.784Z,12.96
2023-02-22T14:59:50.970Z,12.96
2023-02-22T15:04:54.531Z,12.89
2023-02-22T15:10:25.922Z,12.85
2023-02-22T15:15:27.543Z,12.84
2023-02-22T15:20:29.579Z,12.88
2023-02-22T15:25:31.446Z,12.73
2023-02-22T15:30:34.217Z,12.67
2023-02-22T15:35:36.172Z,12.33
2023-02-22T15:40:42.852Z,12.47
2023-02-22T15:45:45.820Z,12.27
2023-02-22T15:50:59.393Z,12.28
2023-02-22T15:56:14.699Z,12.26
2023-02-22T16:01:19.084Z,12.23
2023-02-22T16:06:41.527Z,12.12
2023-02-22T16:11:45.332Z,12.13
2023-02-22T16:16:46.895Z,12.02
2023-02-22T16:22:10.157Z,12.00
2023-02-22T16:27:15.736Z,11.82
2023-02-22T16:32:17.356Z,11.59
2023-02-22T16:37:22.184Z,11.71
2023-02-22T16:42:26.879Z,11.78
2023-02-22T16:47:28.424Z,11.77
2023-02-22T16:52:29.970Z,11.75
2023-02-22T16:57:32.117Z,11.71
2023-02-22T17:02:33.720Z,11.68
2023-02-22T17:07:35.405Z,11.56
2023-02-22T17:12:37.012Z,11.50
2023-02-22T17:17:38.590Z,11.50
2023-02-22T17:22:40.159Z,11.65
2023-02-22T17:27:41.778Z,11.51
2023-02-22T17:32:43.981Z,11.54
2023-02-22T17:37:52.292Z,11.48
2023-02-22T17:42:55.303Z,11.48
2023-02-22T17:47:59.030Z,11.43
2023-02-22T17:53:00.906Z,11.44
2023-02-22T17:58:02.605Z,11.40
2023-02-22T18:03:07.468Z,11.43
2023-02-22T18:08:09.157Z,11.39
2023-02-22T18:13:17.812Z,11.27
2023-02-22T18:18:19.823Z,11.35
2023-02-22T18:23:22.962Z,11.35
2023-02-22T18:28:24.780Z,11.32
2023-02-22T18:33:26.435Z,11.24
2023-02-22T18:38:28.067Z,11.18
2023-02-22T18:43:31.699Z,11.18
2023-02-22T18:48:33.572Z,11.09
2023-02-22T18:53:36.732Z,11.13
2023-02-22T18:58:43.131Z,11.14
2023-02-22T19:03:47.139Z,11.13
2023-02-22T19:08:50.595Z,11.04
2023-02-22T19:13:54.629Z,11.05
2023-02-22T19:18:57.729Z,11.03
2023-02-22T19:23:59.448Z,11.04
2023-02-22T19:29:04.691Z,10.94
2023-02-22T19:34:09.168Z,10.88
2023-02-22T19:39:11.639Z,10.90
2023-02-22T19:44:13.637Z,10.89
2023-02-22T19:49:16.157Z,10.81
2023-02-22T19:54:21.297Z,10.79
2023-02-22T19:59:23.556Z,10.67
2023-02-22T20:04:25.746Z,10.61
2023-02-22T20:09:37.300Z,10.39
2023-02-22T20:14:38.970Z,10.44
2023-02-22T20:19:40.620Z,10.54
2023-02-22T20:24:42.534Z,10.59
2023-02-22T20:29:44.121Z,10.51
2023-02-22T20:34:46.685Z,10.60
2023-02-22T20:39:50.742Z,10.50
2023-02-22T20:44:52.798Z,10.26
2023-02-22T20:49:54.426Z,10.03
2023-02-22T20:54:57.482Z,10.32
2023-02-22T21:00:00.445Z,10.30
2023-02-22T21:05:02.097Z,10.34
2023-02-22T21:10:06.098Z,10.32
2023-02-22T21:15:08.223Z,10.31
2023-02-22T21:20:12.220Z,10.22
2023-02-22T21:25:15.617Z,10.39
2023-02-22T21:30:17.751Z,10.33
2023-02-22T21:35:21.661Z,10.25
2023-02-22T21:40:26.178Z,10.30
2023-02-22T21:45:27.902Z,10.22
2023-02-22T21:50:30.515Z,10.32
2023-02-22T21:55:33.685Z,10.32
2023-02-22T22:00:38.340Z,10.30
2023-02-22T22:05:40.310Z,10.24
2023-02-22T22:10:42.066Z,10.28
2023-02-22T22:15:43.679Z,10.16
2023-02-22T22:20:45.287Z,10.25
2023-02-22T22:25:46.842Z,10.23
2023-02-22T22:30:48.667Z,10.09
2023-02-22T22:35:50.266Z,9.80
2023-02-22T22:40:53.036Z,9.69
2023-02-22T22:45:54.951Z,9.88
2023-02-22T22:51:02.551Z,10.06
2023-02-22T22:56:18.868Z,9.73
2023-02-22T23:01:32.650Z,9.62
2023-02-22T23:06:39.870Z,9.85
2023-02-22T23:11:44.520Z,9.73
2023-02-22T23:16:50.241Z,9.63
2023-02-22T23:21:52.093Z,9.59
2023-02-22T23:26:55.060Z,9.50
2023-02-22T23:31:56.835Z,9.38
2023-02-22T23:36:58.459Z,9.28
2023-02-22T23:42:00.040Z,9.19
2023-02-22T23:47:02.475Z,9.19
2023-02-22T23:52:08.181Z,9.05
2023-02-22T23:57:09.982Z,9.37
